Terminal Aerodrome Forecast
Issued by NWS

Home | Current Version | Previous Version | Text Only | Print | Product List | Glossary On
Versions: 1 2 3 4 5 6 7 8 9 10 11 12
239
FTUS46 KPDT 230539
TAFDLS
TAF
KDLS 230539Z 2306/2406 30010KT P6SM SCT100
     FM230800 30007KT P6SM BKN070
     FM231800 30012KT P6SM VCSH BKN050
      TEMPO 2322/2402 -RA BKN050 BKN100
     FM240200 30014KT P6SM -RA BKN040 BKN100=

USA.gov is the U.S. government's official web portal to all federal, state and local government web resources and services.